createdAt,value
2019-03-10T00:01:18.047Z,29.53
2019-03-10T00:03:44.798Z,13.37
2019-03-10T00:06:11.579Z,18.27
2019-03-10T00:08:38.371Z,27.13
2019-03-10T00:11:05.110Z,24.13
2019-03-10T00:13:31.893Z,21.43
2019-03-10T00:15:58.640Z,25.07
2019-03-10T00:18:25.452Z,27.97
2019-03-10T00:20:52.169Z,22.20
2019-03-10T00:23:19.020Z,33.33
2019-03-10T00:25:45.748Z,18.53
2019-03-10T00:28:12.499Z,19.33
2019-03-10T00:30:39.363Z,24.17
2019-03-10T00:33:06.174Z,22.13
2019-03-10T00:35:34.044Z,27.53
2019-03-10T00:38:00.782Z,27.20
2019-03-10T00:40:27.525Z,34.33
2019-03-10T00:42:54.254Z,18.50
2019-03-10T00:45:21.002Z,26.67
2019-03-10T00:47:47.856Z,11.57
2019-03-10T00:50:14.587Z,18.27
2019-03-10T00:52:41.281Z,16.10
2019-03-10T00:55:08.118Z,22.40
2019-03-10T00:57:34.895Z,25.60
2019-03-10T01:00:01.674Z,19.17
2019-03-10T01:02:28.349Z,24.43
2019-03-10T01:04:55.114Z,21.20
2019-03-10T01:07:21.850Z,27.83
2019-03-10T01:09:48.500Z,17.43
2019-03-10T01:12:15.744Z,23.57
2019-03-10T01:14:42.479Z,25.70
2019-03-10T01:17:09.325Z,30.77
2019-03-10T01:19:36.073Z,19.20
2019-03-10T01:22:02.764Z,29.80
2019-03-10T01:24:29.558Z,31.80
2019-03-10T01:26:56.389Z,20.03
2019-03-10T01:29:23.226Z,40.13
2019-03-10T01:31:49.959Z,16.20
2019-03-10T01:34:16.610Z,18.53
2019-03-10T01:36:43.448Z,15.40
2019-03-10T01:39:10.337Z,26.53
2019-03-10T01:41:37.132Z,21.10
2019-03-10T01:44:03.866Z,26.60
2019-03-10T01:46:30.605Z,30.33
2019-03-10T01:48:57.557Z,19.30
2019-03-10T01:51:24.296Z,26.53
2019-03-10T01:53:51.025Z,18.07
2019-03-10T01:56:17.771Z,20.73
2019-03-10T01:58:44.501Z,14.50
2019-03-10T02:01:11.302Z,7.57
2019-03-10T02:03:38.089Z,7.33
2019-03-10T02:06:04.945Z,13.40
2019-03-10T02:08:31.777Z,13.00
2019-03-10T02:10:58.625Z,6.67
2019-03-10T02:13:25.455Z,12.97
2019-03-10T02:15:52.403Z,9.00
2019-03-10T02:18:19.185Z,21.30
2019-03-10T02:20:45.889Z,17.07
2019-03-10T02:23:12.600Z,5.90
2019-03-10T02:25:39.477Z,9.10
2019-03-10T02:28:06.308Z,19.47
2019-03-10T02:30:33.034Z,13.87
2019-03-10T02:32:59.782Z,9.53
2019-03-10T02:35:26.625Z,13.73
2019-03-10T02:37:53.469Z,11.67
2019-03-10T02:40:20.171Z,11.73
2019-03-10T02:42:46.947Z,9.13
2019-03-10T02:45:13.676Z,10.00
2019-03-10T02:47:40.426Z,11.50
2019-03-10T02:50:07.276Z,15.90
2019-03-10T02:52:34.004Z,16.80
2019-03-10T02:55:00.759Z,15.10
2019-03-10T02:57:27.440Z,15.97
2019-03-10T02:59:54.220Z,16.00
2019-03-10T03:02:21.065Z,18.20
2019-03-10T03:04:47.797Z,15.57
2019-03-10T03:07:14.546Z,16.80
2019-03-10T03:09:41.300Z,16.60
2019-03-10T03:12:08.011Z,25.53
2019-03-10T03:14:34.866Z,32.13
2019-03-10T03:17:01.599Z,13.87
2019-03-10T03:19:28.355Z,31.83
2019-03-10T03:21:55.182Z,22.27
2019-03-10T03:24:21.915Z,30.73
2019-03-10T03:26:48.972Z,31.13
2019-03-10T03:29:15.662Z,17.87
2019-03-10T03:31:42.359Z,22.93
2019-03-10T03:34:09.086Z,19.70
2019-03-10T03:36:35.813Z,22.93
2019-03-10T03:39:02.585Z,14.60
2019-03-10T03:41:29.275Z,22.03
2019-03-10T03:43:56.041Z,23.17
2019-03-10T03:46:22.740Z,17.30
2019-03-10T03:48:49.565Z,22.47
2019-03-10T03:51:16.558Z,18.03
2019-03-10T03:53:43.200Z,19.83
2019-03-10T03:56:10.083Z,13.60
2019-03-10T03:58:36.889Z,19.13
2019-03-10T04:01:03.619Z,19.90
2019-03-10T04:03:30.459Z,21.13
2019-03-10T04:05:57.213Z,21.07
2019-03-10T04:08:23.939Z,24.40
2019-03-10T04:10:50.679Z,20.23
2019-03-10T04:13:17.420Z,27.23
2019-03-10T04:15:44.368Z,15.40
2019-03-10T04:18:11.057Z,16.37
2019-03-10T04:20:37.683Z,17.90
2019-03-10T04:23:04.433Z,13.77
2019-03-10T04:25:31.226Z,17.97
2019-03-10T04:27:58.076Z,18.67
2019-03-10T04:30:24.802Z,16.27
2019-03-10T04:32:51.499Z,12.73
2019-03-10T04:35:18.171Z,21.80
2019-03-10T04:37:44.919Z,11.37
2019-03-10T04:40:11.751Z,12.90
2019-03-10T04:42:38.388Z,19.20
2019-03-10T04:45:05.126Z,14.67
2019-03-10T04:47:31.973Z,22.03
2019-03-10T04:49:58.717Z,16.97
2019-03-10T04:52:25.560Z,19.77
2019-03-10T04:54:52.296Z,18.03
2019-03-10T04:57:19.142Z,18.17
2019-03-10T04:59:45.845Z,16.27
2019-03-10T05:02:12.618Z,13.90
2019-03-10T05:04:39.509Z,16.37
2019-03-10T05:07:06.191Z,12.40
2019-03-10T05:09:32.920Z,15.07
2019-03-10T05:11:59.679Z,14.73
2019-03-10T05:14:26.418Z,19.67
2019-03-10T05:16:53.261Z,12.80
2019-03-10T05:19:20.110Z,15.83
2019-03-10T05:21:46.797Z,31.77
2019-03-10T05:24:13.471Z,11.60
2019-03-10T05:26:40.217Z,17.43
2019-03-10T05:29:07.003Z,16.67
2019-03-10T05:31:33.807Z,14.77
2019-03-10T05:34:00.665Z,29.13
2019-03-10T05:36:27.501Z,16.00
2019-03-10T05:38:54.220Z,13.07
2019-03-10T05:41:21.084Z,15.67
2019-03-10T05:43:47.776Z,14.57
2019-03-10T05:46:14.531Z,11.30
2019-03-10T05:48:41.271Z,17.73
2019-03-10T05:51:07.993Z,16.77
2019-03-10T05:53:34.856Z,22.80
2019-03-10T05:56:01.604Z,30.67
2019-03-10T05:58:28.333Z,19.10
2019-03-10T06:00:55.076Z,18.17
2019-03-10T06:03:21.822Z,21.00
2019-03-10T06:05:48.712Z,18.13
2019-03-10T06:08:15.499Z,24.27
2019-03-10T06:10:42.338Z,17.73
2019-03-10T06:13:09.078Z,13.67
2019-03-10T06:15:35.811Z,20.90
2019-03-10T06:18:12.759Z,22.10
2019-03-10T06:20:31.134Z,17.90
2019-03-10T06:22:57.787Z,15.73
2019-03-10T06:25:24.514Z,20.07
2019-03-10T06:27:51.293Z,11.37
2019-03-10T06:30:18.195Z,16.17
2019-03-10T06:32:44.949Z,14.13
2019-03-10T06:35:11.688Z,15.30
2019-03-10T06:37:38.421Z,14.23
2019-03-10T06:40:05.118Z,17.10
2019-03-10T06:42:31.994Z,13.63
2019-03-10T06:44:58.765Z,16.67
2019-03-10T06:47:25.470Z,20.17
2019-03-10T06:49:52.156Z,9.10
2019-03-10T06:52:18.859Z,13.77
2019-03-10T06:54:45.696Z,18.13
2019-03-10T06:57:12.541Z,14.80
2019-03-10T06:59:39.388Z,12.47
2019-03-10T07:02:06.124Z,18.03
2019-03-10T07:04:32.857Z,20.50
2019-03-10T07:06:59.606Z,20.10
2019-03-10T07:09:26.328Z,26.63
2019-03-10T07:11:53.104Z,18.27
2019-03-10T07:14:19.922Z,20.60
2019-03-10T07:16:46.654Z,25.90
2019-03-10T07:19:13.491Z,12.87
2019-03-10T07:21:40.232Z,13.17
2019-03-10T07:24:06.979Z,21.93
2019-03-10T07:26:33.823Z,23.77
2019-03-10T07:29:00.657Z,13.63
2019-03-10T07:31:27.514Z,33.80
2019-03-10T07:33:54.457Z,16.93
2019-03-10T07:36:21.191Z,23.70
2019-03-10T07:38:48.031Z,19.47
2019-03-10T07:41:14.763Z,14.57
2019-03-10T07:43:42.430Z,13.73
2019-03-10T07:46:09.272Z,23.77
2019-03-10T07:48:36.015Z,17.97
2019-03-10T07:51:02.750Z,22.40
2019-03-10T07:53:29.592Z,29.77
2019-03-10T07:55:56.435Z,28.60
2019-03-10T07:58:23.128Z,19.37
2019-03-10T08:00:49.920Z,18.00
2019-03-10T08:03:16.750Z,20.93
2019-03-10T08:05:43.705Z,12.43
2019-03-10T08:08:10.539Z,15.43
2019-03-10T08:10:37.390Z,29.53
2019-03-10T08:13:04.119Z,16.63
2019-03-10T08:15:30.868Z,32.30
2019-03-10T08:17:57.558Z,29.60
2019-03-10T08:20:24.344Z,37.27
2019-03-10T08:22:51.066Z,20.00
2019-03-10T08:25:17.821Z,30.97
2019-03-10T08:27:44.548Z,25.27
2019-03-10T08:30:11.284Z,22.97
2019-03-10T08:32:38.134Z,25.50
2019-03-10T08:35:04.865Z,29.10
2019-03-10T08:37:31.502Z,22.27
2019-03-10T08:39:58.155Z,23.63
2019-03-10T08:42:24.983Z,18.90
2019-03-10T08:44:51.835Z,20.03
2019-03-10T08:47:18.567Z,27.13
2019-03-10T08:49:45.684Z,14.80
2019-03-10T08:52:12.449Z,17.40
2019-03-10T08:54:39.925Z,32.53
2019-03-10T08:57:06.695Z,37.60
2019-03-10T08:59:33.493Z,30.27
2019-03-10T09:02:00.233Z,27.37
2019-03-10T09:04:27.077Z,32.07
2019-03-10T09:06:53.951Z,19.43
2019-03-10T09:09:20.761Z,28.67
2019-03-10T09:11:47.496Z,27.47
2019-03-10T09:14:14.241Z,25.87
2019-03-10T09:16:41.087Z,13.03
2019-03-10T09:19:07.938Z,13.87
2019-03-10T09:21:35.384Z,15.73
2019-03-10T09:24:02.110Z,15.30
2019-03-10T09:26:28.845Z,18.33
2019-03-10T09:28:55.587Z,11.97
2019-03-10T09:31:22.333Z,16.80
2019-03-10T09:33:49.188Z,19.87
2019-03-10T09:36:15.920Z,22.50
2019-03-10T09:38:42.659Z,18.87
2019-03-10T09:41:09.500Z,24.90
2019-03-10T09:43:36.231Z,18.80
2019-03-10T09:46:03.079Z,17.43
2019-03-10T09:48:29.828Z,13.27
2019-03-10T09:50:56.572Z,15.27
2019-03-10T09:53:23.292Z,19.63
2019-03-10T09:55:50.270Z,27.53
2019-03-10T09:58:17.451Z,16.87
2019-03-10T10:00:44.243Z,13.13
2019-03-10T10:03:11.122Z,14.70
2019-03-10T10:05:37.919Z,12.43
2019-03-10T10:08:04.659Z,11.93
2019-03-10T10:10:31.488Z,13.80
2019-03-10T10:12:58.336Z,14.47
2019-03-10T10:15:25.188Z,15.93
2019-03-10T10:17:52.022Z,13.33
2019-03-10T10:20:18.871Z,12.93
2019-03-10T10:22:45.710Z,12.93
2019-03-10T10:25:12.555Z,7.80
2019-03-10T10:27:39.399Z,15.80
2019-03-10T10:30:06.232Z,13.83
2019-03-10T10:32:33.085Z,11.77
2019-03-10T10:34:59.927Z,19.00
2019-03-10T10:37:26.621Z,9.83
2019-03-10T10:39:53.392Z,19.87
2019-03-10T10:42:20.294Z,18.00
2019-03-10T10:44:47.085Z,26.60
2019-03-10T10:47:13.941Z,17.00
2019-03-10T10:49:40.749Z,21.77
2019-03-10T10:52:07.613Z,25.87
2019-03-10T10:54:34.644Z,25.67
2019-03-10T10:57:01.358Z,12.70
2019-03-10T10:59:28.144Z,17.97
2019-03-10T11:01:55.018Z,12.63
2019-03-10T11:04:21.802Z,17.13
2019-03-10T11:06:48.724Z,14.13
2019-03-10T11:09:15.492Z,21.50
2019-03-10T11:11:42.459Z,19.93
2019-03-10T11:14:09.189Z,20.47
2019-03-10T11:16:36.123Z,21.80
2019-03-10T11:19:02.967Z,14.50
2019-03-10T11:21:29.805Z,14.43
2019-03-10T11:23:56.568Z,12.83
2019-03-10T11:26:23.376Z,22.23
2019-03-10T11:28:50.122Z,15.20
2019-03-10T11:31:16.823Z,17.37
2019-03-10T11:33:43.502Z,15.40
2019-03-10T11:36:10.339Z,13.47
2019-03-10T11:38:37.347Z,26.37
2019-03-10T11:41:04.184Z,14.97
2019-03-10T11:43:30.962Z,24.93
2019-03-10T11:45:57.809Z,18.60
2019-03-10T11:48:24.712Z,16.77
2019-03-10T11:50:51.493Z,14.77
2019-03-10T11:53:19.391Z,19.80
2019-03-10T11:55:46.494Z,16.80
2019-03-10T11:58:13.246Z,18.93
2019-03-10T12:00:40.211Z,19.17
2019-03-10T12:03:06.923Z,15.30
2019-03-10T12:05:33.672Z,20.60
2019-03-10T12:08:00.527Z,23.97
2019-03-10T12:10:27.210Z,49.17
2019-03-10T12:12:54.184Z,51.70
2019-03-10T12:15:20.886Z,192.73
2019-03-10T12:17:47.564Z,200.63
2019-03-10T12:20:14.413Z,274.23
2019-03-10T12:22:41.409Z,257.43
2019-03-10T12:25:08.305Z,277.30
2019-03-10T12:27:35.144Z,181.27
2019-03-10T12:30:01.875Z,148.43
2019-03-10T12:32:28.628Z,259.73
2019-03-10T12:34:55.466Z,306.93
2019-03-10T12:37:22.308Z,284.13
2019-03-10T12:39:49.057Z,197.50
2019-03-10T12:42:15.996Z,294.33
2019-03-10T12:44:42.691Z,275.77
2019-03-10T12:47:09.465Z,46.40
2019-03-10T12:49:36.311Z,85.23
2019-03-10T12:52:03.169Z,86.47
2019-03-10T12:54:30.249Z,57.90
2019-03-10T12:56:57.042Z,43.80
2019-03-10T12:59:23.762Z,47.40
2019-03-10T13:01:50.902Z,34.43
2019-03-10T13:04:19.207Z,53.73
2019-03-10T13:06:46.046Z,47.37
2019-03-10T13:09:12.885Z,42.90
2019-03-10T13:11:39.728Z,50.70
2019-03-10T13:14:06.564Z,42.13
2019-03-10T13:16:33.305Z,39.83
2019-03-10T13:18:59.999Z,42.37
2019-03-10T13:21:26.700Z,63.50
2019-03-10T13:23:53.407Z,32.33
2019-03-10T13:26:20.180Z,57.37
2019-03-10T13:28:47.110Z,48.00
2019-03-10T13:31:13.840Z,38.77
2019-03-10T13:33:40.578Z,55.73
2019-03-10T13:36:07.332Z,38.20
2019-03-10T13:38:34.175Z,62.90
2019-03-10T13:41:02.428Z,50.67
2019-03-10T13:43:29.381Z,60.93
2019-03-10T13:45:56.115Z,39.73
2019-03-10T13:48:22.867Z,71.03
2019-03-10T13:50:49.733Z,37.13
2019-03-10T13:53:16.487Z,45.27
2019-03-10T13:55:43.384Z,44.20
2019-03-10T13:58:10.116Z,45.40
2019-03-10T14:00:36.865Z,36.93
2019-03-10T14:03:04.116Z,31.17
2019-03-10T14:05:30.850Z,50.77
2019-03-10T14:07:57.693Z,38.10
2019-03-10T14:10:24.423Z,49.57
2019-03-10T14:12:51.080Z,36.53
2019-03-10T14:15:18.225Z,34.80
2019-03-10T14:17:45.177Z,25.20
2019-03-10T14:20:11.909Z,37.10
2019-03-10T14:22:38.755Z,27.80
2019-03-10T14:25:05.594Z,35.40
2019-03-10T14:27:32.441Z,48.87
2019-03-10T14:29:59.270Z,31.20
2019-03-10T14:32:26.127Z,44.60
2019-03-10T14:34:52.958Z,25.90
2019-03-10T14:37:19.759Z,24.57
2019-03-10T14:39:46.637Z,42.23
2019-03-10T14:42:13.493Z,18.90
2019-03-10T14:44:40.330Z,21.67
2019-03-10T14:47:07.065Z,33.23
2019-03-10T14:49:33.776Z,43.03
2019-03-10T14:52:00.568Z,34.57
2019-03-10T14:54:27.414Z,77.83
2019-03-10T14:56:54.319Z,32.67
2019-03-10T14:59:21.375Z,37.77
2019-03-10T15:01:48.424Z,27.27
2019-03-10T15:04:15.248Z,30.13
2019-03-10T15:06:41.950Z,44.57
2019-03-10T15:09:08.739Z,27.23
2019-03-10T15:11:35.589Z,50.90
2019-03-10T15:14:02.289Z,36.27
2019-03-10T15:16:29.161Z,55.40
2019-03-10T15:18:56.576Z,73.80
2019-03-10T15:21:23.653Z,38.10
2019-03-10T15:23:50.670Z,28.93
2019-03-10T15:26:17.458Z,44.60
2019-03-10T15:28:44.283Z,31.63
2019-03-10T15:31:11.049Z,29.67
2019-03-10T15:33:37.763Z,37.17
2019-03-10T15:36:04.615Z,33.70
2019-03-10T15:38:31.455Z,39.40
2019-03-10T15:40:58.400Z,45.47
2019-03-10T15:43:25.140Z,50.70
2019-03-10T15:45:51.989Z,24.67
2019-03-10T15:48:18.703Z,39.90
2019-03-10T15:50:45.457Z,30.37
2019-03-10T15:53:12.239Z,28.00
2019-03-10T15:55:39.027Z,32.00
2019-03-10T15:58:05.766Z,60.83
2019-03-10T16:00:32.520Z,53.00
2019-03-10T16:02:59.355Z,39.17
2019-03-10T16:05:26.199Z,33.33
2019-03-10T16:07:52.941Z,34.77
2019-03-10T16:10:19.695Z,41.30
2019-03-10T16:12:46.696Z,30.43
2019-03-10T16:15:13.464Z,49.73
2019-03-10T16:17:40.292Z,34.67
2019-03-10T16:20:07.176Z,32.93
2019-03-10T16:22:34.934Z,38.50
2019-03-10T16:25:01.740Z,42.20
2019-03-10T16:27:28.598Z,24.23
2019-03-10T16:29:55.447Z,35.50
2019-03-10T16:32:22.365Z,56.93
2019-03-10T16:34:49.117Z,38.63
2019-03-10T16:37:15.848Z,39.07
2019-03-10T16:39:42.609Z,33.50
2019-03-10T16:42:10.265Z,62.20
2019-03-10T16:44:37.106Z,42.00
2019-03-10T16:47:04.243Z,47.33
2019-03-10T16:49:31.208Z,36.33
2019-03-10T16:51:58.644Z,38.43
2019-03-10T16:54:25.733Z,34.13
2019-03-10T16:56:52.531Z,29.53
2019-03-10T16:59:19.393Z,37.63
2019-03-10T17:01:46.222Z,34.50
2019-03-10T17:04:13.071Z,26.57
2019-03-10T17:06:40.027Z,24.53
2019-03-10T17:09:06.845Z,33.77
2019-03-10T17:11:33.584Z,28.40
2019-03-10T17:14:00.321Z,24.90
2019-03-10T17:16:27.058Z,45.80
2019-03-10T17:18:53.861Z,37.40
2019-03-10T17:21:20.671Z,33.20
2019-03-10T17:23:47.477Z,42.20
2019-03-10T17:26:14.224Z,41.03
2019-03-10T17:28:40.859Z,31.60
2019-03-10T17:31:07.710Z,44.90
2019-03-10T17:33:34.639Z,32.30
2019-03-10T17:36:01.389Z,38.23
2019-03-10T17:38:28.117Z,57.17
2019-03-10T17:40:54.823Z,33.07
2019-03-10T17:43:21.599Z,32.63
2019-03-10T17:45:48.341Z,38.43
2019-03-10T17:48:15.182Z,38.33
2019-03-10T17:50:41.929Z,31.60
2019-03-10T17:53:08.678Z,53.57
2019-03-10T17:55:35.506Z,49.60
2019-03-10T17:58:02.344Z,35.50
2019-03-10T18:00:29.032Z,53.60
2019-03-10T18:02:55.781Z,50.83
2019-03-10T18:05:22.572Z,44.07
2019-03-10T18:07:49.416Z,53.70
2019-03-10T18:10:16.288Z,57.97
2019-03-10T18:12:42.997Z,77.57
2019-03-10T18:15:09.847Z,70.60
2019-03-10T18:17:37.399Z,85.63
2019-03-10T18:20:04.590Z,82.03
2019-03-10T18:22:31.607Z,73.50
2019-03-10T18:24:58.901Z,89.37
2019-03-10T18:27:25.776Z,68.77
2019-03-10T18:29:52.876Z,61.20
2019-03-10T18:32:19.770Z,68.27
2019-03-10T18:34:55.104Z,56.40
2019-03-10T18:37:21.956Z,54.53
2019-03-10T18:39:48.869Z,59.40
2019-03-10T18:42:15.648Z,64.00
2019-03-10T18:44:42.480Z,47.97
2019-03-10T18:47:09.217Z,60.70
2019-03-10T18:49:37.383Z,59.03
2019-03-10T18:52:04.130Z,46.60
2019-03-10T18:54:31.916Z,60.57
2019-03-10T18:56:59.638Z,43.33
2019-03-10T18:59:26.555Z,55.10
2019-03-10T19:01:54.172Z,42.37
2019-03-10T19:04:20.859Z,57.77
2019-03-10T19:06:47.791Z,38.73
2019-03-10T19:09:16.397Z,46.80
2019-03-10T19:11:43.054Z,48.43
2019-03-10T19:14:09.902Z,57.80
2019-03-10T19:16:36.741Z,53.37
2019-03-10T19:19:03.489Z,54.93
2019-03-10T19:21:30.319Z,35.50
2019-03-10T19:23:57.822Z,59.27
2019-03-10T19:26:25.227Z,66.53
2019-03-10T19:28:52.288Z,30.33
2019-03-10T19:31:19.009Z,42.70
2019-03-10T19:33:45.861Z,66.10
2019-03-10T19:36:12.699Z,31.07
2019-03-10T19:38:39.541Z,41.30
2019-03-10T19:41:06.290Z,74.47
2019-03-10T19:43:34.306Z,37.03
2019-03-10T19:46:01.082Z,43.00
2019-03-10T19:48:27.807Z,59.30
2019-03-10T19:50:56.661Z,37.00
2019-03-10T19:53:23.525Z,45.30
2019-03-10T19:55:52.082Z,54.43
2019-03-10T19:58:18.822Z,49.87
2019-03-10T20:00:45.620Z,30.63
2019-03-10T20:03:12.470Z,48.87
2019-03-10T20:05:39.622Z,42.67
2019-03-10T20:08:06.455Z,41.40
2019-03-10T20:10:34.225Z,54.30
2019-03-10T20:13:00.952Z,50.97
2019-03-10T20:15:27.685Z,38.40
2019-03-10T20:17:54.443Z,54.20
2019-03-10T20:20:21.273Z,54.63
2019-03-10T20:22:48.052Z,47.00
2019-03-10T20:25:14.861Z,53.87
2019-03-10T20:27:41.705Z,61.73
2019-03-10T20:30:08.429Z,43.73
2019-03-10T20:32:35.503Z,68.37
2019-03-10T20:35:02.240Z,47.60
2019-03-10T20:37:29.070Z,46.40
2019-03-10T20:39:55.903Z,50.40
2019-03-10T20:42:22.628Z,54.00
2019-03-10T20:44:49.377Z,60.73
2019-03-10T20:47:16.123Z,54.43
2019-03-10T20:49:43.376Z,73.33
2019-03-10T20:52:10.526Z,50.20
2019-03-10T20:54:37.256Z,57.90
2019-03-10T20:57:05.358Z,53.17
2019-03-10T20:59:32.078Z,38.07
2019-03-10T21:01:58.813Z,57.90
2019-03-10T21:04:25.665Z,66.80
2019-03-10T21:06:52.559Z,31.60
2019-03-10T21:09:19.337Z,41.27
2019-03-10T21:11:46.480Z,27.87
2019-03-10T21:14:13.651Z,38.57
2019-03-10T21:16:40.691Z,33.17
2019-03-10T21:19:07.548Z,47.07
2019-03-10T21:21:36.157Z,35.67
2019-03-10T21:24:02.954Z,49.60
2019-03-10T21:26:29.696Z,58.40
2019-03-10T21:28:56.577Z,39.60
2019-03-10T21:31:23.425Z,53.27
2019-03-10T21:33:50.216Z,51.67
2019-03-10T21:36:16.941Z,54.97
2019-03-10T21:38:44.206Z,49.73
2019-03-10T21:41:14.402Z,84.80
2019-03-10T21:43:41.090Z,35.97
2019-03-10T21:46:08.016Z,41.40
2019-03-10T21:48:34.847Z,43.57
2019-03-10T21:51:02.714Z,76.13
2019-03-10T21:53:29.763Z,69.30
2019-03-10T21:55:57.003Z,58.13
2019-03-10T21:58:23.862Z,67.13
2019-03-10T22:00:50.705Z,36.77
2019-03-10T22:03:17.540Z,52.57
2019-03-10T22:05:45.142Z,39.17
2019-03-10T22:08:12.838Z,26.70
2019-03-10T22:10:39.848Z,43.27
2019-03-10T22:13:06.564Z,51.20
2019-03-10T22:15:41.560Z,34.57
2019-03-10T22:18:02.586Z,65.20
2019-03-10T22:20:29.309Z,52.03
2019-03-10T22:22:56.037Z,34.57
2019-03-10T22:25:23.001Z,50.13
2019-03-10T22:27:49.696Z,54.13
2019-03-10T22:30:16.482Z,38.00
2019-03-10T22:32:43.530Z,38.73
2019-03-10T22:35:10.245Z,44.37
2019-03-10T22:37:37.096Z,56.53
2019-03-10T22:40:04.763Z,82.33
2019-03-10T22:42:31.497Z,59.13
2019-03-10T22:44:58.769Z,38.20
2019-03-10T22:47:25.494Z,53.67
2019-03-10T22:49:54.301Z,40.13
2019-03-10T22:52:21.022Z,47.53
2019-03-10T22:54:47.969Z,38.23
2019-03-10T22:57:14.698Z,63.53
2019-03-10T22:59:41.393Z,38.50
2019-03-10T23:02:08.175Z,51.67
2019-03-10T23:04:35.661Z,61.90
2019-03-10T23:07:02.485Z,41.83
2019-03-10T23:09:29.213Z,60.87
2019-03-10T23:11:55.968Z,55.30
2019-03-10T23:14:22.744Z,60.63
2019-03-10T23:16:52.177Z,33.00
2019-03-10T23:19:17.923Z,62.93
2019-03-10T23:21:44.649Z,60.33
2019-03-10T23:24:11.597Z,53.10
2019-03-10T23:26:38.801Z,42.17
2019-03-10T23:29:05.588Z,44.43
2019-03-10T23:31:32.445Z,59.03
2019-03-10T23:33:59.680Z,76.70
2019-03-10T23:36:26.425Z,64.23
2019-03-10T23:38:53.161Z,61.23
2019-03-10T23:41:20.032Z,65.30
2019-03-10T23:43:46.768Z,38.70
2019-03-10T23:46:13.427Z,31.67
2019-03-10T23:48:40.223Z,39.87
2019-03-10T23:51:06.918Z,46.10
2019-03-10T23:53:33.691Z,44.83
2019-03-10T23:56:00.872Z,52.53
2019-03-10T23:58:27.702Z,47.37
